sensor_id;sensor_type;location;lat;lon;timestamp;pressure;altitude;pressure_sealevel;temperature;humidity
11053;BME280;55230;42.602;23.470;2023-02-03T00:01:45;93577.72;;;0.40;95.71
11053;BME280;55230;42.602;23.470;2023-02-03T00:04:13;93696.31;;;1.17;96.03
11053;BME280;55230;42.602;23.470;2023-02-03T00:06:41;93695.16;;;1.14;97.34
11053;BME280;55230;42.602;23.470;2023-02-03T00:09:08;93484.97;;;-0.30;96.69
11053;BME280;55230;42.602;23.470;2023-02-03T00:11:35;93207.75;;;-2.09;96.38
11053;BME280;55230;42.602;23.470;2023-02-03T00:14:02;93486.09;;;-0.24;97.39
11053;BME280;55230;42.602;23.470;2023-02-03T00:16:32;93203.88;;;-2.43;97.37
11053;BME280;55230;42.602;23.470;2023-02-03T00:18:59;93686.50;;;0.86;98.94
11053;BME280;55230;42.602;23.470;2023-02-03T00:21:27;93445.56;;;-0.91;99.37
11053;BME280;55230;42.602;23.470;2023-02-03T00:23:54;93726.69;;;0.91;100.00
11053;BME280;55230;42.602;23.470;2023-02-03T00:26:20;93646.31;;;0.52;100.00
11053;BME280;55230;42.602;23.470;2023-02-03T00:28:48;93621.59;;;-0.22;100.00
11053;BME280;55230;42.602;23.470;2023-02-03T00:31:16;93675.09;;;0.64;100.00
11053;BME280;55230;42.602;23.470;2023-02-03T00:33:43;93179.22;;;-2.79;100.00
11053;BME280;55230;42.602;23.470;2023-02-03T00:36:10;93587.19;;;-0.08;100.00
11053;BME280;55230;42.602;23.470;2023-02-03T00:38:39;93690.28;;;0.53;100.00
11053;BME280;55230;42.602;23.470;2023-02-03T00:41:06;93664.50;;;0.40;100.00
11053;BME280;55230;42.602;23.470;2023-02-03T00:43:33;93592.06;;;-0.21;100.00
11053;BME280;55230;42.602;23.470;2023-02-03T00:45:59;93612.19;;;-0.02;100.00
11053;BME280;55230;42.602;23.470;2023-02-03T00:48:26;93602.28;;;-0.33;100.00
11053;BME280;55230;42.602;23.470;2023-02-03T00:50:53;93486.72;;;-1.11;100.00
11053;BME280;55230;42.602;23.470;2023-02-03T00:53:20;93761.53;;;0.58;100.00
11053;BME280;55230;42.602;23.470;2023-02-03T00:55:48;93750.13;;;0.47;100.00
11053;BME280;55230;42.602;23.470;2023-02-03T00:58:15;93645.44;;;-0.22;100.00
11053;BME280;55230;42.602;23.470;2023-02-03T01:00:41;93755.44;;;0.54;100.00
11053;BME280;55230;42.602;23.470;2023-02-03T01:03:08;93708.34;;;0.02;100.00
11053;BME280;55230;42.602;23.470;2023-02-03T01:05:35;93180.88;;;-3.25;100.00
11053;BME280;55230;42.602;23.470;2023-02-03T01:08:02;93624.94;;;-0.43;100.00
11053;BME280;55230;42.602;23.470;2023-02-03T01:10:29;93736.47;;;0.42;100.00
11053;BME280;55230;42.602;23.470;2023-02-03T01:12:57;93738.78;;;0.40;100.00
11053;BME280;55230;42.602;23.470;2023-02-03T01:15:24;93716.38;;;0.30;100.00
11053;BME280;55230;42.602;23.470;2023-02-03T01:17:50;93737.25;;;0.49;100.00
11053;BME280;55230;42.602;23.470;2023-02-03T01:20:17;93648.13;;;-0.15;100.00
11053;BME280;55230;42.602;23.470;2023-02-03T01:22:46;93304.84;;;-2.60;100.00
11053;BME280;55230;42.602;23.470;2023-02-03T01:25:12;93743.31;;;0.39;100.00
11053;BME280;55230;42.602;23.470;2023-02-03T01:27:39;93635.94;;;-0.44;100.00
11053;BME280;55230;42.602;23.470;2023-02-03T01:30:08;93616.94;;;-0.60;100.00
11053;BME280;55230;42.602;23.470;2023-02-03T01:32:35;93740.22;;;0.20;100.00
11053;BME280;55230;42.602;23.470;2023-02-03T01:35:02;93654.53;;;-0.27;100.00
11053;BME280;55230;42.602;23.470;2023-02-03T01:37:29;93720.91;;;0.12;100.00
11053;BME280;55230;42.602;23.470;2023-02-03T01:39:55;93769.03;;;0.28;100.00
11053;BME280;55230;42.602;23.470;2023-02-03T01:42:22;93750.09;;;0.33;100.00
11053;BME280;55230;42.602;23.470;2023-02-03T01:44:49;93746.31;;;0.31;100.00
11053;BME280;55230;42.602;23.470;2023-02-03T01:47:22;93689.75;;;-0.12;100.00
11053;BME280;55230;42.602;23.470;2023-02-03T01:49:58;93752.34;;;0.21;100.00
11053;BME280;55230;42.602;23.470;2023-02-03T01:52:26;93767.13;;;0.25;100.00
11053;BME280;55230;42.602;23.470;2023-02-03T01:54:55;93756.13;;;0.20;100.00
11053;BME280;55230;42.602;23.470;2023-02-03T01:57:28;93755.03;;;0.24;100.00
11053;BME280;55230;42.602;23.470;2023-02-03T01:59:58;93756.91;;;0.24;100.00
11053;BME280;55230;42.602;23.470;2023-02-03T02:02:27;93671.06;;;-0.54;100.00
11053;BME280;55230;42.602;23.470;2023-02-03T02:04:59;93769.34;;;0.09;100.00
11053;BME280;55230;42.602;23.470;2023-02-03T02:07:28;93687.06;;;-0.30;100.00
11053;BME280;55230;42.602;23.470;2023-02-03T02:09:56;93690.09;;;-0.24;100.00
11053;BME280;55230;42.602;23.470;2023-02-03T02:12:23;93738.63;;;-0.10;100.00
11053;BME280;55230;42.602;23.470;2023-02-03T02:14:49;93713.22;;;-0.21;100.00
11053;BME280;55230;42.602;23.470;2023-02-03T02:17:34;93739.00;;;-0.11;100.00
11053;BME280;55230;42.602;23.470;2023-02-03T02:29:11;93739.06;;;0.07;100.00
11053;BME280;55230;42.602;23.470;2023-02-03T02:31:57;93610.38;;;-0.94;100.00
11053;BME280;55230;42.602;23.470;2023-02-03T02:34:36;93542.78;;;-1.57;100.00
11053;BME280;55230;42.602;23.470;2023-02-03T02:37:09;93761.75;;;0.04;100.00
11053;BME280;55230;42.602;23.470;2023-02-03T02:39:53;93768.59;;;0.16;100.00
11053;BME280;55230;42.602;23.470;2023-02-03T02:42:27;93760.28;;;0.14;100.00
11053;BME280;55230;42.602;23.470;2023-02-03T02:45:05;93765.59;;;0.14;100.00
11053;BME280;55230;42.602;23.470;2023-02-03T02:47:34;93455.66;;;-2.07;100.00
11053;BME280;55230;42.602;23.470;2023-02-03T02:50:05;93501.84;;;-1.84;100.00
11053;BME280;55230;42.602;23.470;2023-02-03T02:52:35;93764.44;;;0.11;100.00
11053;BME280;55230;42.602;23.470;2023-02-03T02:55:07;93691.88;;;-0.56;100.00
11053;BME280;55230;42.602;23.470;2023-02-03T02:57:36;93727.13;;;-0.45;100.00
11053;BME280;55230;42.602;23.470;2023-02-03T03:00:06;93774.25;;;0.00;100.00
11053;BME280;55230;42.602;23.470;2023-02-03T03:02:35;93728.13;;;-0.67;100.00
11053;BME280;55230;42.602;23.470;2023-02-03T03:05:03;93629.88;;;-1.24;100.00
11053;BME280;55230;42.602;23.470;2023-02-03T03:07:34;93772.63;;;-0.87;100.00
11053;BME280;55230;42.602;23.470;2023-02-03T03:10:09;93788.53;;;-0.22;100.00
11053;BME280;55230;42.602;23.470;2023-02-03T03:12:39;93786.94;;;-0.37;100.00
11053;BME280;55230;42.602;23.470;2023-02-03T03:15:11;93808.28;;;-0.09;100.00
11053;BME280;55230;42.602;23.470;2023-02-03T03:17:44;93808.31;;;-0.06;100.00
11053;BME280;55230;42.602;23.470;2023-02-03T03:20:16;93816.66;;;-0.04;100.00
11053;BME280;55230;42.602;23.470;2023-02-03T03:22:49;93892.00;;;-0.01;100.00
11053;BME280;55230;42.602;23.470;2023-02-03T03:25:20;93834.88;;;0.05;100.00
11053;BME280;55230;42.602;23.470;2023-02-03T03:27:54;93842.09;;;0.12;100.00
11053;BME280;55230;42.602;23.470;2023-02-03T03:30:24;93889.44;;;0.13;100.00
11053;BME280;55230;42.602;23.470;2023-02-03T03:32:54;93805.97;;;-0.18;100.00
11053;BME280;55230;42.602;23.470;2023-02-03T03:35:24;93757.41;;;-0.39;100.00
11053;BME280;55230;42.602;23.470;2023-02-03T03:37:56;93742.22;;;-0.49;100.00
11053;BME280;55230;42.602;23.470;2023-02-03T03:40:27;93587.88;;;-1.90;100.00
11053;BME280;55230;42.602;23.470;2023-02-03T03:42:58;93831.84;;;0.10;99.93
11053;BME280;55230;42.602;23.470;2023-02-03T03:45:32;93785.44;;;-0.35;98.78
11053;BME280;55230;42.602;23.470;2023-02-03T03:48:05;93827.28;;;0.07;99.14
11053;BME280;55230;42.602;23.470;2023-02-03T03:50:37;93834.47;;;0.03;99.02
11053;BME280;55230;42.602;23.470;2023-02-03T03:53:08;93765.78;;;-0.30;97.56
11053;BME280;55230;42.602;23.470;2023-02-03T03:55:37;93655.53;;;-1.28;97.04
11053;BME280;55230;42.602;23.470;2023-02-03T03:58:08;93795.38;;;-0.18;96.71
11053;BME280;55230;42.602;23.470;2023-02-03T04:00:37;93856.13;;;0.23;97.37
11053;BME280;55230;42.602;23.470;2023-02-03T04:03:12;93813.94;;;-0.14;97.25
11053;BME280;55230;42.602;23.470;2023-02-03T04:05:41;93529.38;;;-1.88;97.40
11053;BME280;55230;42.602;23.470;2023-02-03T04:08:08;93421.09;;;-2.86;97.67
11053;BME280;55230;42.602;23.470;2023-02-03T04:10:36;93834.72;;;-0.20;98.25
11053;BME280;55230;42.602;23.470;2023-02-03T04:13:04;93619.84;;;-1.55;97.68
11053;BME280;55230;42.602;23.470;2023-02-03T04:15:32;93832.56;;;0.07;98.91
11053;BME280;55230;42.602;23.470;2023-02-03T04:17:59;93542.91;;;-1.97;98.04
11053;BME280;55230;42.602;23.470;2023-02-03T04:20:28;93863.66;;;0.07;98.60
11053;BME280;55230;42.602;23.470;2023-02-03T04:22:55;93687.84;;;-1.01;99.32
11053;BME280;55230;42.602;23.470;2023-02-03T04:25:23;93772.91;;;-0.38;99.49
11053;BME280;55230;42.602;23.470;2023-02-03T04:27:50;93741.00;;;-0.66;99.71
11053;BME280;55230;42.602;23.470;2023-02-03T04:30:17;93546.66;;;-2.45;100.00
11053;BME280;55230;42.602;23.470;2023-02-03T04:32:44;93677.13;;;-1.22;100.00
11053;BME280;55230;42.602;23.470;2023-02-03T04:35:11;93853.78;;;0.00;100.00
11053;BME280;55230;42.602;23.470;2023-02-03T04:37:39;93859.84;;;0.04;100.00
11053;BME280;55230;42.602;23.470;2023-02-03T04:40:07;93821.06;;;-0.25;100.00
11053;BME280;55230;42.602;23.470;2023-02-03T04:42:35;93857.06;;;-0.17;100.00
11053;BME280;55230;42.602;23.470;2023-02-03T04:45:03;93814.78;;;-0.61;100.00
11053;BME280;55230;42.602;23.470;2023-02-03T04:47:30;93791.75;;;-0.53;100.00
11053;BME280;55230;42.602;23.470;2023-02-03T04:49:57;93920.44;;;0.06;100.00
11053;BME280;55230;42.602;23.470;2023-02-03T04:52:24;93885.94;;;0.02;100.00
11053;BME280;55230;42.602;23.470;2023-02-03T04:54:53;93779.91;;;-0.73;100.00
11053;BME280;55230;42.602;23.470;2023-02-03T04:57:19;93902.22;;;0.00;100.00
11053;BME280;55230;42.602;23.470;2023-02-03T04:59:46;93788.56;;;-0.80;100.00
11053;BME280;55230;42.602;23.470;2023-02-03T05:02:13;93786.66;;;-0.79;100.00
11053;BME280;55230;42.602;23.470;2023-02-03T05:04:40;93851.22;;;-0.44;100.00
11053;BME280;55230;42.602;23.470;2023-02-03T05:07:06;93801.47;;;-0.71;100.00
11053;BME280;55230;42.602;23.470;2023-02-03T05:09:33;93748.69;;;-1.04;100.00
11053;BME280;55230;42.602;23.470;2023-02-03T05:12:01;93943.75;;;-0.21;100.00
11053;BME280;55230;42.602;23.470;2023-02-03T05:14:28;93767.41;;;-1.27;100.00
11053;BME280;55230;42.602;23.470;2023-02-03T05:16:55;93915.38;;;-0.14;100.00
11053;BME280;55230;42.602;23.470;2023-02-03T05:19:21;93911.69;;;-0.02;100.00
11053;BME280;55230;42.602;23.470;2023-02-03T05:21:48;93887.69;;;-0.27;100.00
11053;BME280;55230;42.602;23.470;2023-02-03T05:24:15;93918.91;;;0.01;100.00
11053;BME280;55230;42.602;23.470;2023-02-03T05:26:42;93807.13;;;-0.76;100.00
11053;BME280;55230;42.602;23.470;2023-02-03T05:29:10;93906.19;;;-0.30;100.00
11053;BME280;55230;42.602;23.470;2023-02-03T05:31:37;93915.47;;;0.00;100.00
11053;BME280;55230;42.602;23.470;2023-02-03T05:34:04;93825.50;;;-0.94;100.00
11053;BME280;55230;42.602;23.470;2023-02-03T05:36:30;93886.84;;;-0.34;100.00
11053;BME280;55230;42.602;23.470;2023-02-03T05:38:57;93919.66;;;-0.02;100.00
11053;BME280;55230;42.602;23.470;2023-02-03T05:41:24;93909.28;;;-0.21;100.00
11053;BME280;55230;42.602;23.470;2023-02-03T05:44:10;93875.34;;;-0.59;100.00
11053;BME280;55230;42.602;23.470;2023-02-03T05:46:36;93908.91;;;-0.23;100.00
11053;BME280;55230;42.602;23.470;2023-02-03T05:49:03;93822.03;;;-1.01;100.00
11053;BME280;55230;42.602;23.470;2023-02-03T05:51:30;93922.91;;;-0.23;100.00
11053;BME280;55230;42.602;23.470;2023-02-03T05:53:57;93929.84;;;-0.04;100.00
11053;BME280;55230;42.602;23.470;2023-02-03T05:56:23;93520.38;;;-3.08;100.00
11053;BME280;55230;42.602;23.470;2023-02-03T05:58:50;93877.53;;;-0.68;100.00
11053;BME280;55230;42.602;23.470;2023-02-03T06:01:19;93940.25;;;-0.29;100.00
11053;BME280;55230;42.602;23.470;2023-02-03T06:03:46;93877.69;;;-0.47;100.00
11053;BME280;55230;42.602;23.470;2023-02-03T06:06:14;93687.16;;;-2.25;100.00
11053;BME280;55230;42.602;23.470;2023-02-03T06:08:40;93823.28;;;-1.32;100.00
11053;BME280;55230;42.602;23.470;2023-02-03T06:11:08;93937.31;;;-0.17;100.00
11053;BME280;55230;42.602;23.470;2023-02-03T06:13:35;93951.34;;;-0.16;100.00
11053;BME280;55230;42.602;23.470;2023-02-03T06:16:01;93647.31;;;-2.10;100.00
11053;BME280;55230;42.602;23.470;2023-02-03T06:18:30;93633.53;;;-2.33;100.00
11053;BME280;55230;42.602;23.470;2023-02-03T06:20:57;93901.78;;;-0.63;100.00
11053;BME280;55230;42.602;23.470;2023-02-03T06:23:23;93942.16;;;-0.29;100.00
11053;BME280;55230;42.602;23.470;2023-02-03T06:25:50;93946.81;;;-0.12;100.00
11053;BME280;55230;42.602;23.470;2023-02-03T06:28:17;93772.16;;;-1.43;100.00
11053;BME280;55230;42.602;23.470;2023-02-03T06:30:44;93843.38;;;-0.80;99.78
11053;BME280;55230;42.602;23.470;2023-02-03T06:33:11;93864.59;;;-0.77;99.53
11053;BME280;55230;42.602;23.470;2023-02-03T06:35:39;93934.88;;;-0.39;99.23
11053;BME280;55230;42.602;23.470;2023-02-03T06:38:06;93835.06;;;-0.79;99.43
11053;BME280;55230;42.602;23.470;2023-02-03T06:40:32;93921.28;;;-0.34;98.14
11053;BME280;55230;42.602;23.470;2023-02-03T06:42:59;93948.31;;;-0.15;97.21
11053;BME280;55230;42.602;23.470;2023-02-03T06:45:26;93979.91;;;0.08;96.92
11053;BME280;55230;42.602;23.470;2023-02-03T06:47:53;93984.47;;;0.11;96.91
11053;BME280;55230;42.602;23.470;2023-02-03T06:50:20;93993.97;;;0.12;96.38
11053;BME280;55230;42.602;23.470;2023-02-03T06:52:49;93830.44;;;-0.92;96.28
11053;BME280;55230;42.602;23.470;2023-02-03T06:55:16;93773.88;;;-1.21;95.46
11053;BME280;55230;42.602;23.470;2023-02-03T06:57:43;93822.53;;;-0.85;94.38
11053;BME280;55230;42.602;23.470;2023-02-03T07:00:12;93994.88;;;0.37;93.66
11053;BME280;55230;42.602;23.470;2023-02-03T07:02:39;93907.03;;;-0.19;93.83
11053;BME280;55230;42.602;23.470;2023-02-03T07:05:06;93961.22;;;-0.10;93.08
11053;BME280;55230;42.602;23.470;2023-02-03T07:07:33;93982.31;;;0.24;92.62
11053;BME280;55230;42.602;23.470;2023-02-03T07:10:02;93988.84;;;0.40;92.55
11053;BME280;55230;42.602;23.470;2023-02-03T07:12:28;93908.25;;;-0.06;91.95
11053;BME280;55230;42.602;23.470;2023-02-03T07:14:56;93599.56;;;-2.31;91.82
11053;BME280;55230;42.602;23.470;2023-02-03T07:17:49;94030.72;;;0.75;90.57
11053;BME280;55230;42.602;23.470;2023-02-03T07:23:33;93769.72;;;-0.71;89.90
11053;BME280;55230;42.602;23.470;2023-02-03T07:24:50;93762.00;;;-0.90;89.84
11053;BME280;55230;42.602;23.470;2023-02-03T07:28:07;94039.75;;;0.60;90.77
11053;BME280;55230;42.602;23.470;2023-02-03T07:30:46;94080.72;;;0.69;91.21
11053;BME280;55230;42.602;23.470;2023-02-03T07:33:45;94036.16;;;0.96;88.24
11053;BME280;55230;42.602;23.470;2023-02-03T07:36:48;93781.06;;;-1.22;87.36
11053;BME280;55230;42.602;23.470;2023-02-03T07:40:01;93376.34;;;-3.23;85.90
11053;BME280;55230;42.602;23.470;2023-02-03T07:42:47;94078.78;;;1.28;85.28
11053;BME280;55230;42.602;23.470;2023-02-03T07:45:19;93617.25;;;-1.48;84.76
11053;BME280;55230;42.602;23.470;2023-02-03T07:47:46;93588.88;;;-1.58;85.71
11053;BME280;55230;42.602;23.470;2023-02-03T07:50:15;93765.75;;;-0.34;84.70
11053;BME280;55230;42.602;23.470;2023-02-03T07:52:49;94120.22;;;1.43;84.49
11053;BME280;55230;42.602;23.470;2023-02-03T07:55:39;93439.19;;;-2.88;82.60
11053;BME280;55230;42.602;23.470;2023-02-03T07:58:29;94094.88;;;1.70;83.47
11053;BME280;55230;42.602;23.470;2023-02-03T08:01:16;94084.56;;;1.58;82.44
11053;BME280;55230;42.602;23.470;2023-02-03T08:03:51;93619.59;;;-1.36;83.61
11053;BME280;55230;42.602;23.470;2023-02-03T08:06:19;94013.53;;;1.34;83.53
11053;BME280;55230;42.602;23.470;2023-02-03T08:08:49;93380.25;;;-3.06;83.32
11053;BME280;55230;42.602;23.470;2023-02-03T08:11:18;93818.28;;;0.22;83.61
11053;BME280;55230;42.602;23.470;2023-02-03T08:13:45;94015.81;;;1.42;82.58
11053;BME280;55230;42.602;23.470;2023-02-03T08:16:14;94026.56;;;1.95;80.83
11053;BME280;55230;42.602;23.470;2023-02-03T08:18:41;93817.59;;;0.46;80.33
11053;BME280;55230;42.602;23.470;2023-02-03T08:21:08;94032.59;;;1.85;81.07
11053;BME280;55230;42.602;23.470;2023-02-03T08:23:35;93979.75;;;1.31;81.46
11053;BME280;55230;42.602;23.470;2023-02-03T08:26:02;93661.06;;;-0.92;80.90
11053;BME280;55230;42.602;23.470;2023-02-03T08:28:29;94063.78;;;2.09;80.51
11053;BME280;55230;42.602;23.470;2023-02-03T08:30:56;93977.00;;;1.06;79.88
11053;BME280;55230;42.602;23.470;2023-02-03T08:33:24;94028.00;;;1.61;79.71
11053;BME280;55230;42.602;23.470;2023-02-03T08:35:52;94036.38;;;1.70;80.03
11053;BME280;55230;42.602;23.470;2023-02-03T08:38:18;93676.66;;;-0.73;79.99
11053;BME280;55230;42.602;23.470;2023-02-03T08:40:46;94040.59;;;1.95;79.71
11053;BME280;55230;42.602;23.470;2023-02-03T08:43:13;93773.88;;;-0.02;78.15
11053;BME280;55230;42.602;23.470;2023-02-03T08:45:40;94066.06;;;2.42;77.50
11053;BME280;55230;42.602;23.470;2023-02-03T08:48:06;93993.88;;;1.98;75.06
11053;BME280;55230;42.602;23.470;2023-02-03T08:50:35;93916.03;;;1.62;75.21
11053;BME280;55230;42.602;23.470;2023-02-03T08:53:02;94063.03;;;2.40;73.50
11053;BME280;55230;42.602;23.470;2023-02-03T08:55:28;94107.13;;;2.30;76.26
11053;BME280;55230;42.602;23.470;2023-02-03T08:57:55;93993.13;;;2.15;74.53
11053;BME280;55230;42.602;23.470;2023-02-03T09:00:22;93956.63;;;1.63;75.32
11053;BME280;55230;42.602;23.470;2023-02-03T09:02:49;94065.31;;;2.59;75.52
11053;BME280;55230;42.602;23.470;2023-02-03T09:05:16;93755.09;;;0.59;75.28
11053;BME280;55230;42.602;23.470;2023-02-03T09:07:44;93815.44;;;1.04;74.75
11053;BME280;55230;42.602;23.470;2023-02-03T09:10:11;94085.78;;;2.97;74.92
11053;BME280;55230;42.602;23.470;2023-02-03T09:12:38;94063.00;;;2.82;75.51
11053;BME280;55230;42.602;23.470;2023-02-03T09:15:05;94071.34;;;3.05;74.93
11053;BME280;55230;42.602;23.470;2023-02-03T09:17:32;94060.69;;;2.98;73.91
11053;BME280;55230;42.602;23.470;2023-02-03T09:19:59;94057.63;;;3.10;76.21
11053;BME280;55230;42.602;23.470;2023-02-03T09:22:26;94060.69;;;3.05;76.69
11053;BME280;55230;42.602;23.470;2023-02-03T09:24:54;93884.06;;;2.04;75.85
11053;BME280;55230;42.602;23.470;2023-02-03T09:27:21;93986.94;;;2.81;74.93
11053;BME280;55230;42.602;23.470;2023-02-03T09:29:47;94038.59;;;3.08;75.71
11053;BME280;55230;42.602;23.470;2023-02-03T09:32:14;94048.19;;;2.81;76.08
11053;BME280;55230;42.602;23.470;2023-02-03T09:34:41;94063.03;;;2.54;77.58
11053;BME280;55230;42.602;23.470;2023-02-03T09:37:08;93943.75;;;2.07;76.67
11053;BME280;55230;42.602;23.470;2023-02-03T09:39:35;94021.16;;;2.79;78.04
11053;BME280;55230;42.602;23.470;2023-02-03T09:42:34;94050.81;;;2.88;75.98
11053;BME280;55230;42.602;23.470;2023-02-03T09:45:10;94043.97;;;2.87;77.37
11053;BME280;55230;42.602;23.470;2023-02-03T09:47:42;94015.00;;;3.03;76.43
11053;BME280;55230;42.602;23.470;2023-02-03T09:50:12;93961.78;;;2.93;75.97
11053;BME280;55230;42.602;23.470;2023-02-03T09:52:40;94045.25;;;3.55;76.74
11053;BME280;55230;42.602;23.470;2023-02-03T09:55:19;93976.28;;;2.81;75.00
11053;BME280;55230;42.602;23.470;2023-02-03T09:57:54;94042.09;;;2.77;75.49
11053;BME280;55230;42.602;23.470;2023-02-03T10:00:27;93963.84;;;2.40;75.32
11053;BME280;55230;42.602;23.470;2023-02-03T10:02:58;93980.97;;;1.93;75.45
11053;BME280;55230;42.602;23.470;2023-02-03T10:05:48;94038.72;;;2.34;74.98
11053;BME280;55230;42.602;23.470;2023-02-03T10:08:28;93977.16;;;2.15;76.18
11053;BME280;55230;42.602;23.470;2023-02-03T10:11:10;94032.53;;;2.90;74.11
11053;BME280;55230;42.602;23.470;2023-02-03T10:13:54;93944.84;;;2.23;68.43
11053;BME280;55230;42.602;23.470;2023-02-03T10:16:34;93889.78;;;2.03;69.23
11053;BME280;55230;42.602;23.470;2023-02-03T10:19:10;94027.63;;;2.82;73.17
11053;BME280;55230;42.602;23.470;2023-02-03T10:21:40;94049.22;;;3.15;71.66
11053;BME280;55230;42.602;23.470;2023-02-03T10:24:12;94051.56;;;2.92;70.20
11053;BME280;55230;42.602;23.470;2023-02-03T10:26:41;94058.47;;;2.58;69.90
11053;BME280;55230;42.602;23.470;2023-02-03T10:29:17;94053.94;;;2.38;69.09
11053;BME280;55230;42.602;23.470;2023-02-03T10:31:45;93766.84;;;0.58;70.58
11053;BME280;55230;42.602;23.470;2023-02-03T10:34:14;94000.69;;;1.92;69.33
11053;BME280;55230;42.602;23.470;2023-02-03T10:36:51;94067.59;;;2.08;69.06
11053;BME280;55230;42.602;23.470;2023-02-03T10:39:26;93690.44;;;-0.43;70.10
11053;BME280;55230;42.602;23.470;2023-02-03T10:41:56;93933.78;;;1.19;68.34
11053;BME280;55230;42.602;23.470;2023-02-03T10:44:30;94022.72;;;1.82;70.18
11053;BME280;55230;42.602;23.470;2023-02-03T10:46:58;93968.00;;;1.49;69.24
11053;BME280;55230;42.602;23.470;2023-02-03T10:49:27;94028.47;;;2.01;71.05
11053;BME280;55230;42.602;23.470;2023-02-03T10:52:00;93870.03;;;1.12;70.54
11053;BME280;55230;42.602;23.470;2023-02-03T10:54:31;93833.94;;;0.76;68.87
11053;BME280;55230;42.602;23.470;2023-02-03T10:57:03;93697.81;;;0.30;69.91
11053;BME280;55230;42.602;23.470;2023-02-03T10:59:34;93967.25;;;2.33;70.15
11053;BME280;55230;42.602;23.470;2023-02-03T11:02:07;93906.53;;;1.86;66.87
11053;BME280;55230;42.602;23.470;2023-02-03T11:04:34;93690.66;;;0.48;68.43
11053;BME280;55230;42.602;23.470;2023-02-03T11:07:03;93952.06;;;2.09;69.10
11053;BME280;55230;42.602;23.470;2023-02-03T11:09:33;94017.72;;;2.86;69.30
11053;BME280;55230;42.602;23.470;2023-02-03T11:12:06;94016.53;;;2.97;68.69
11053;BME280;55230;42.602;23.470;2023-02-03T11:14:39;93942.03;;;2.73;70.04
11053;BME280;55230;42.602;23.470;2023-02-03T11:17:11;94022.66;;;2.91;70.59
11053;BME280;55230;42.602;23.470;2023-02-03T11:19:43;93954.28;;;2.49;68.13
11053;BME280;55230;42.602;23.470;2023-02-03T11:22:11;93768.41;;;1.08;64.88
11053;BME280;55230;42.602;23.470;2023-02-03T11:24:39;93862.50;;;1.50;63.11
11053;BME280;55230;42.602;23.470;2023-02-03T11:27:11;94004.09;;;2.49;62.39
11053;BME280;55230;42.602;23.470;2023-02-03T11:29:42;93652.09;;;-0.70;61.46
11053;BME280;55230;42.602;23.470;2023-02-03T11:32:17;93936.53;;;1.83;64.77
11053;BME280;55230;42.602;23.470;2023-02-03T11:34:51;93972.16;;;2.45;64.22
11053;BME280;55230;42.602;23.470;2023-02-03T11:37:30;94001.00;;;2.78;61.82
11053;BME280;55230;42.602;23.470;2023-02-03T11:40:20;93838.50;;;1.99;62.01
11053;BME280;55230;42.602;23.470;2023-02-03T11:43:00;93744.81;;;1.46;59.00
11053;BME280;55230;42.602;23.470;2023-02-03T11:45:29;93999.00;;;3.14;57.80
11053;BME280;55230;42.602;23.470;2023-02-03T11:48:05;93961.06;;;2.78;60.51
11053;BME280;55230;42.602;23.470;2023-02-03T11:50:37;93991.47;;;2.91;58.60
11053;BME280;55230;42.602;23.470;2023-02-03T11:56:07;93982.25;;;3.06;61.38
11053;BME280;55230;42.602;23.470;2023-02-03T12:02:12;93979.47;;;3.96;58.86
11053;BME280;55230;42.602;23.470;2023-02-03T12:05:13;93970.78;;;3.82;53.64
11053;BME280;55230;42.602;23.470;2023-02-03T12:07:52;93977.22;;;3.33;53.58
11053;BME280;55230;42.602;23.470;2023-02-03T12:10:32;93921.53;;;2.70;57.13
11053;BME280;55230;42.602;23.470;2023-02-03T12:13:12;93979.28;;;2.83;55.45
11053;BME280;55230;42.602;23.470;2023-02-03T12:16:00;93901.84;;;2.50;55.56
11053;BME280;55230;42.602;23.470;2023-02-03T12:18:43;93914.78;;;2.44;55.71
11053;BME280;55230;42.602;23.470;2023-02-03T12:21:39;93971.56;;;3.20;57.45
11053;BME280;55230;42.602;23.470;2023-02-03T12:24:22;93965.69;;;3.50;53.73
11053;BME280;55230;42.602;23.470;2023-02-03T12:27:00;93928.16;;;3.16;54.57
11053;BME280;55230;42.602;23.470;2023-02-03T12:29:32;93425.19;;;-0.59;51.67
11053;BME280;55230;42.602;23.470;2023-02-03T12:32:06;93949.66;;;2.81;54.04
11053;BME280;55230;42.602;23.470;2023-02-03T12:34:41;93868.31;;;2.59;52.04
11053;BME280;55230;42.602;23.470;2023-02-03T12:37:16;93960.44;;;3.32;51.26
11053;BME280;55230;42.602;23.470;2023-02-03T12:39:48;93906.00;;;2.54;50.29
11053;BME280;55230;42.602;23.470;2023-02-03T12:42:19;93947.78;;;2.64;50.72
11053;BME280;55230;42.602;23.470;2023-02-03T12:44:51;93866.66;;;1.65;52.27
11053;BME280;55230;42.602;23.470;2023-02-03T12:47:26;93908.78;;;1.84;53.28
11053;BME280;55230;42.602;23.470;2023-02-03T12:49:56;93967.63;;;2.28;53.33
11053;BME280;55230;42.602;23.470;2023-02-03T12:52:29;93920.94;;;2.06;53.53
11053;BME280;55230;42.602;23.470;2023-02-03T12:55:05;93944.44;;;2.28;53.78
11053;BME280;55230;42.602;23.470;2023-02-03T12:57:38;93956.16;;;2.66;54.62
11053;BME280;55230;42.602;23.470;2023-02-03T13:00:17;94038.63;;;2.98;52.88
11053;BME280;55230;42.602;23.470;2023-02-03T13:03:01;94017.31;;;2.98;53.56
11053;BME280;55230;42.602;23.470;2023-02-03T13:05:38;93900.25;;;2.63;53.58
11053;BME280;55230;42.602;23.470;2023-02-03T13:08:12;93868.50;;;2.13;55.39
11053;BME280;55230;42.602;23.470;2023-02-03T13:10:44;93610.31;;;0.58;54.51
11053;BME280;55230;42.602;23.470;2023-02-03T13:13:18;93828.56;;;2.24;56.33
11053;BME280;55230;42.602;23.470;2023-02-03T13:15:47;93888.06;;;2.72;56.02
11053;BME280;55230;42.602;23.470;2023-02-03T13:18:22;93483.44;;;-0.14;54.08
11053;BME280;55230;42.602;23.470;2023-02-03T13:20:54;93741.63;;;2.03;54.88
11053;BME280;55230;42.602;23.470;2023-02-03T13:23:21;93938.03;;;3.23;53.66
11053;BME280;55230;42.602;23.470;2023-02-03T13:26:03;93932.78;;;3.09;55.05
11053;BME280;55230;42.602;23.470;2023-02-03T13:28:44;93826.81;;;1.47;56.11
11053;BME280;55230;42.602;23.470;2023-02-03T13:31:29;93657.63;;;1.05;57.96